»·PEaware :: N198ME KSNA-KCRQ

N198ME :: KSNA-KCRQ

FLIGHT INFORMATION

Flight Status: Arrived
Operator: Privately registered:
United States
More flights under this callsign
Pilot: Juan S. (26712)
Aircraft: CESSNA 172 SKYHAWK
(C172)
More flights by this aircraft type
Origin: KSNA John Wayne-Orange Co
United States
Destination: KCRQ McClellan-Palomar
United States
More flights between these airports :: More routes between these airports
Route: +V23 OCN
File this flight plan on PilotEdge
Remarks: I2 Rating
Altitude:
(Current/Filed)
5,000ft
Speed:
(Current/Filed)
110kts
Departed: 30-Nov-19 08:13 AM
Arrived: 30-Nov-19 08:56 AM
Distance/Time
Traveled:
44nm/0:43
Distance/Time
To Go:
Arrived

Flight Plot

Page will automatically refresh every two minutes.


Map Options




Map Legend


Flown Route
Filed Route
Departure Airport
Arrival Airport
Navaid (VOR, NDB)
Fix

Horizontal Profiles

Position Reports

Time Latitude Longitude Heading Altitude Ground
Speed
30-Nov-19 07:55 33.674107 -117.865557 117 60ft 0kts
30-Nov-19 07:56 33.674107 -117.865557 117 60ft 0kts
30-Nov-19 07:57 33.674107 -117.865557 117 60ft 0kts
30-Nov-19 07:58 33.674107 -117.865557 117 60ft 0kts
30-Nov-19 07:59 33.674107 -117.865557 117 60ft 0kts
30-Nov-19 08:00 33.674107 -117.865557 117 60ft 0kts
30-Nov-19 08:01 33.674107 -117.865557 117 60ft 0kts
30-Nov-19 08:02 33.674107 -117.865557 117 60ft 0kts
30-Nov-19 08:03 33.674107 -117.865557 117 60ft 0kts
30-Nov-19 08:04 33.674107 -117.865557 117 60ft 0kts
30-Nov-19 08:05 33.674107 -117.865557 117 60ft 0kts
30-Nov-19 08:06 33.674107 -117.865557 117 60ft 0kts
30-Nov-19 08:07 33.674052 -117.865497 160 60ft 4kts
30-Nov-19 08:08 33.673861 -117.867245 358 60ft 4kts
30-Nov-19 08:09 33.676959 -117.865276 29 60ft 19kts
30-Nov-19 08:10 33.679968 -117.863623 303 60ft 0kts
30-Nov-19 08:11 33.679968 -117.863623 303 60ft 0kts
30-Nov-19 08:12 33.673419 -117.868527 211 200ft 84kts
30-Nov-19 08:13 33.651665 -117.874958 184 1369ft 82kts
30-Nov-19 08:14 33.628051 -117.877866 186 2391ft 89kts
30-Nov-19 08:15 33.603302 -117.880779 185 3398ft 90kts
30-Nov-19 08:16 33.577776 -117.883050 186 4320ft 94kts
30-Nov-19 08:17 33.550705 -117.885619 186 4998ft 111kts
30-Nov-19 08:18 33.517464 -117.887918 185 5000ft 125kts
30-Nov-19 08:19 33.483494 -117.889831 184 4948ft 119kts
30-Nov-19 08:20 33.453700 -117.885104 115 5030ft 110kts
30-Nov-19 08:21 33.440020 -117.850413 107 5008ft 118kts
30-Nov-19 08:22 33.426400 -117.814142 111 4960ft 123kts
30-Nov-19 08:23 33.411570 -117.778101 110 4968ft 120kts
30-Nov-19 08:24 33.395715 -117.742958 110 4967ft 119kts
30-Nov-19 08:25 33.380534 -117.707799 111 4946ft 119kts
30-Nov-19 08:26 33.365564 -117.673140 107 4987ft 116kts
30-Nov-19 08:27 33.351026 -117.638911 112 5034ft 116kts
30-Nov-19 08:28 33.336009 -117.605039 112 5017ft 116kts
30-Nov-19 08:29 33.320662 -117.571255 109 4993ft 115kts
30-Nov-19 08:30 33.306048 -117.536733 111 4971ft 117kts
30-Nov-19 08:31 33.289756 -117.502564 110 4956ft 118kts
30-Nov-19 08:32 33.275573 -117.467146 111 4988ft 119kts
30-Nov-19 08:33 33.255176 -117.435456 132 5030ft 122kts
30-Nov-19 08:34 33.234365 -117.404326 94 4985ft 115kts
30-Nov-19 08:35 33.235309 -117.367537 80 5035ft 109kts
30-Nov-19 08:36 33.237096 -117.330661 83 5033ft 111kts
30-Nov-19 08:37 33.236967 -117.293717 80 5045ft 109kts
30-Nov-19 08:38 33.235450 -117.257317 84 5061ft 108kts
30-Nov-19 08:39 33.235692 -117.221416 85 5047ft 108kts
30-Nov-19 08:40 33.235841 -117.186161 82 4993ft 107kts
30-Nov-19 08:41 33.235288 -117.151223 83 4967ft 104kts
30-Nov-19 08:42 33.235721 -117.117163 83 4979ft 102kts
30-Nov-19 08:43 33.235270 -117.082672 84 4971ft 104kts
30-Nov-19 08:44 33.234771 -117.047637 84 4999ft 106kts
30-Nov-19 08:45 33.228898 -117.014181 149 5051ft 116kts
30-Nov-19 08:46 33.196067 -117.008126 172 5070ft 121kts
30-Nov-19 08:47 33.165679 -117.015857 255 4826ft 120kts
30-Nov-19 08:49 33.164364 -117.053872 276 4351ft 116kts
30-Nov-19 08:50 33.157419 -117.092258 266 3745ft 119kts
30-Nov-19 08:51 33.152136 -117.131020 265 3032ft 118kts
30-Nov-19 08:52 33.148927 -117.169764 262 2262ft 119kts
30-Nov-19 08:53 33.141711 -117.206106 257 1575ft 105kts
30-Nov-19 08:54 33.137068 -117.239117 259 963ft 95kts
30-Nov-19 08:55 33.130216 -117.269804 254 494ft 86kts
30-Nov-19 08:56 33.127514 -117.280003 226 335ft 0kts

Navigation Log

Ident Type
Flight plan parsing failed, navigation log unavailable